Time;durP1;ratioP1;P1;durP2;ratioP2;P2;SDS_P1;SDS_P2;PMS_P1;PMS_P2;Temp;Humidity;BMP_temperature;BMP_pressure;BME280_temperature;BME280_humidity;BME280_pressure;Samples;Min_cycle;Max_cycle;Signal;HPM_P1;HPM_P2
2023/09/07 00:00:30;;;;;;;5.07;3.00;;;;;;;;;;1030524;28;20106;-73
2023/09/07 00:01:04;;;;;;;4.63;3.10;;;;;;;;;;1030865;28;20023;-75
2023/09/07 00:01:34;;;;;;;4.78;3.20;;;;;;;;;;1026947;28;20019;-75
2023/09/07 00:02:05;;;;;;;6.75;3.40;;;;;;;;;;1023706;28;20163;-75
2023/09/07 00:02:35;;;;;;;3.53;3.20;;;;;;;;;;1022810;28;20024;-74
2023/09/07 00:03:05;;;;;;;4.80;3.42;;;;;;;;;;1031013;28;20022;-75
2023/09/07 00:03:40;;;;;;;4.35;3.42;;;;;;;;;;1027028;28;20022;-75
2023/09/07 00:04:12;;;;;;;3.88;3.10;;;;;;;;;;1023760;28;20020;-74
2023/09/07 00:04:43;;;;;;;3.25;2.95;;;;;;;;;;1019670;29;20071;-75
2023/09/07 00:05:14;;;;;;;5.15;2.75;;;;;;;;;;1021219;29;20032;-75
2023/09/07 00:05:44;;;;;;;4.65;3.20;;;;;;;;;;1024000;28;20023;-75
2023/09/07 00:06:15;;;;;;;4.65;3.15;;;;;;;;;;1025625;28;20474;-74
2023/09/07 00:06:45;;;;;;;5.90;4.32;;;;;;;;;;1035095;28;20047;-75
2023/09/07 00:07:15;;;;;;;5.20;3.00;;;;;;;;;;1030921;28;20022;-75
2023/09/07 00:07:45;;;;;;;5.15;3.50;;;;;;;;;;1031015;28;20030;-74
2023/09/07 00:08:16;;;;;;;4.80;3.35;;;;;;;;;;1035077;28;20432;-75
2023/09/07 00:08:46;;;;;;;6.70;3.60;;;;;;;;;;1031169;28;20653;-75
2023/09/07 00:09:18;;;;;;;4.55;3.25;;;;;;;;;;1026884;28;20075;-74
2023/09/07 00:09:48;;;;;;;4.90;2.83;;;;;;;;;;1018814;28;20034;-75
2023/09/07 00:10:18;;;;;;;5.30;3.08;;;;;;;;;;1014993;29;20507;-75
2023/09/07 00:10:49;;;;;;;5.32;3.47;;;;;;;;;;1019076;29;20024;-75
2023/09/07 00:11:19;;;;;;;3.88;3.30;;;;;;;;;;1023086;28;20088;-74
2023/09/07 00:11:49;;;;;;;5.40;3.00;;;;;;;;;;1031038;28;20061;-75
2023/09/07 00:12:20;;;;;;;3.88;3.15;;;;;;;;;;1030991;28;20022;-75
2023/09/07 00:12:50;;;;;;;5.43;3.30;;;;;;;;;;1031351;28;20568;-75
2023/09/07 00:13:20;;;;;;;4.00;3.28;;;;;;;;;;1031112;28;20034;-74
2023/09/07 00:13:50;;;;;;;6.43;3.30;;;;;;;;;;1027087;28;20469;-75
2023/09/07 00:14:21;;;;;;;3.83;3.40;;;;;;;;;;1022735;29;20063;-75
2023/09/07 00:14:52;;;;;;;3.33;2.72;;;;;;;;;;1022901;28;20023;-75
2023/09/07 00:15:23;;;;;;;4.00;3.30;;;;;;;;;;1027186;28;20061;-75
2023/09/07 00:15:53;;;;;;;4.82;3.28;;;;;;;;;;1023211;28;20023;-76
2023/09/07 00:16:23;;;;;;;4.18;3.78;;;;;;;;;;1022942;28;20050;-75
2023/09/07 00:16:53;;;;;;;4.70;3.28;;;;;;;;;;1023107;29;20027;-74
2023/09/07 00:17:25;;;;;;;4.70;3.38;;;;;;;;;;1019187;28;20124;-75
2023/09/07 00:17:55;;;;;;;3.72;3.10;;;;;;;;;;1027326;28;20018;-75
2023/09/07 00:18:26;;;;;;;3.45;2.92;;;;;;;;;;1027510;28;20019;-75
2023/09/07 00:18:56;;;;;;;5.25;3.42;;;;;;;;;;1027019;28;20478;-75
2023/09/07 00:19:27;;;;;;;5.97;3.45;;;;;;;;;;1022981;29;20034;-75
2023/09/07 00:19:58;;;;;;;3.60;3.03;;;;;;;;;;1019061;29;20086;-75
2023/09/07 00:20:28;;;;;;;4.38;3.35;;;;;;;;;;1018324;29;20032;-75
2023/09/07 00:20:59;;;;;;;4.45;3.40;;;;;;;;;;1023029;28;20059;-75
2023/09/07 00:21:29;;;;;;;5.13;3.58;;;;;;;;;;1023248;28;20023;-75
2023/09/07 00:21:59;;;;;;;6.43;3.90;;;;;;;;;;1020579;28;20020;-75
2023/09/07 00:22:31;;;;;;;4.30;3.35;;;;;;;;;;1026824;28;20038;-75
2023/09/07 00:23:01;;;;;;;4.97;3.83;;;;;;;;;;1023114;28;20019;-75
2023/09/07 00:23:31;;;;;;;5.65;3.47;;;;;;;;;;1023545;28;20122;-75
2023/09/07 00:24:05;;;;;;;4.03;3.10;;;;;;;;;;1030885;28;20836;-75
2023/09/07 00:24:35;;;;;;;4.72;3.70;;;;;;;;;;1026563;28;20415;-75
2023/09/07 00:25:06;;;;;;;4.55;3.78;;;;;;;;;;1023405;28;20019;-75
2023/09/07 00:25:36;;;;;;;7.50;3.42;;;;;;;;;;1019255;29;20552;-74
2023/09/07 00:26:07;;;;;;;5.43;3.30;;;;;;;;;;1023661;28;20019;-75
2023/09/07 00:26:37;;;;;;;4.55;3.55;;;;;;;;;;1022817;28;20106;-75
2023/09/07 00:27:07;;;;;;;4.22;3.70;;;;;;;;;;1023072;28;20773;-76
2023/09/07 00:27:38;;;;;;;5.40;3.42;;;;;;;;;;1030927;28;20110;-77
2023/09/07 00:28:08;;;;;;;5.22;3.35;;;;;;;;;;1031114;28;20105;-75
2023/09/07 00:28:38;;;;;;;4.32;3.38;;;;;;;;;;1034637;28;20022;-75
2023/09/07 00:29:09;;;;;;;4.53;3.50;;;;;;;;;;1031063;28;20075;-75
2023/09/07 00:29:39;;;;;;;4.43;3.42;;;;;;;;;;1026894;28;20030;-74
2023/09/07 00:30:10;;;;;;;4.03;3.35;;;;;;;;;;1026951;28;20021;-75
2023/09/07 00:30:40;;;;;;;4.82;3.40;;;;;;;;;;1025240;28;20038;-75
2023/09/07 00:31:10;;;;;;;5.22;3.38;;;;;;;;;;1026873;28;20015;-75
2023/09/07 00:31:41;;;;;;;5.97;3.63;;;;;;;;;;1026793;28;20023;-74
2023/09/07 00:32:11;;;;;;;4.97;3.30;;;;;;;;;;1026903;28;20021;-75
2023/09/07 00:32:42;;;;;;;5.00;3.63;;;;;;;;;;1026866;28;20130;-75
2023/09/07 00:33:12;;;;;;;4.47;3.80;;;;;;;;;;1030827;28;20018;-75
2023/09/07 00:33:42;;;;;;;4.60;3.55;;;;;;;;;;1030824;28;20093;-74
2023/09/07 00:34:12;;;;;;;3.92;3.40;;;;;;;;;;1027004;28;20025;-74
2023/09/07 00:34:43;;;;;;;5.53;3.92;;;;;;;;;;1018928;29;20027;-75
2023/09/07 00:35:13;;;;;;;4.55;3.45;;;;;;;;;;1018847;29;20053;-75
2023/09/07 00:35:43;;;;;;;4.43;3.67;;;;;;;;;;1018959;29;20554;-75
2023/09/07 00:36:14;;;;;;;6.65;3.50;;;;;;;;;;1022958;29;20633;-75
2023/09/07 00:36:44;;;;;;;3.78;3.38;;;;;;;;;;1019096;29;20063;-75
2023/09/07 00:37:14;;;;;;;5.40;3.97;;;;;;;;;;1019942;29;20058;-74
2023/09/07 00:37:44;;;;;;;6.10;3.40;;;;;;;;;;1019020;29;20060;-76
2023/09/07 00:38:15;;;;;;;4.85;3.40;;;;;;;;;;1026882;28;20026;-74
2023/09/07 00:38:45;;;;;;;4.38;3.20;;;;;;;;;;1027006;28;20429;-75
2023/09/07 00:39:15;;;;;;;6.30;3.20;;;;;;;;;;1022571;28;20023;-75
2023/09/07 00:39:46;;;;;;;5.15;3.60;;;;;;;;;;1023069;29;20011;-75
2023/09/07 00:40:16;;;;;;;6.68;3.60;;;;;;;;;;1018862;29;20034;-75
2023/09/07 00:40:46;;;;;;;5.15;3.55;;;;;;;;;;1024655;28;20548;-75
2023/09/07 00:41:17;;;;;;;6.10;3.83;;;;;;;;;;1026744;28;20038;-74
2023/09/07 00:41:47;;;;;;;4.95;3.25;;;;;;;;;;1026804;28;20022;-74
2023/09/07 00:42:17;;;;;;;5.18;3.33;;;;;;;;;;1022664;29;20031;-75
2023/09/07 00:42:47;;;;;;;5.22;3.42;;;;;;;;;;1023075;29;20207;-75
2023/09/07 00:43:18;;;;;;;6.28;3.97;;;;;;;;;;1018886;28;20149;-75
2023/09/07 00:43:48;;;;;;;4.25;3.80;;;;;;;;;;1022925;28;20027;-75
2023/09/07 00:44:18;;;;;;;4.18;3.05;;;;;;;;;;1026600;28;20501;-75
2023/09/07 00:44:49;;;;;;;7.50;3.88;;;;;;;;;;1026950;28;20098;-75
2023/09/07 00:45:19;;;;;;;4.00;3.30;;;;;;;;;;1026664;28;20628;-74
2023/09/07 00:45:49;;;;;;;4.53;3.10;;;;;;;;;;1024823;28;20023;-75
2023/09/07 00:46:21;;;;;;;7.80;3.30;;;;;;;;;;1022756;28;20011;-75
2023/09/07 00:46:51;;;;;;;4.47;3.40;;;;;;;;;;1022826;29;20043;-75
2023/09/07 00:47:22;;;;;;;5.97;3.70;;;;;;;;;;1023451;28;20015;-75
2023/09/07 00:47:53;;;;;;;8.05;3.78;;;;;;;;;;1019181;29;20031;-75
2023/09/07 00:48:23;;;;;;;6.43;3.85;;;;;;;;;;1018967;28;20111;-75
2023/09/07 00:48:54;;;;;;;6.88;3.80;;;;;;;;;;1022980;29;20433;-74
2023/09/07 00:49:24;;;;;;;5.22;3.60;;;;;;;;;;1018782;28;20450;-75
2023/09/07 00:49:54;;;;;;;10.55;3.60;;;;;;;;;;1018860;28;20011;-75
2023/09/07 00:50:24;;;;;;;4.00;2.90;;;;;;;;;;1022334;28;20066;-75
2023/09/07 00:50:55;;;;;;;6.05;3.40;;;;;;;;;;1020670;29;20027;-74
2023/09/07 00:51:25;;;;;;;5.13;3.90;;;;;;;;;;1022841;29;20023;-74
2023/09/07 00:51:55;;;;;;;5.28;3.85;;;;;;;;;;1022661;29;20062;-75
2023/09/07 00:52:25;;;;;;;4.25;3.50;;;;;;;;;;1015215;29;20025;-75
2023/09/07 00:52:56;;;;;;;3.83;3.42;;;;;;;;;;1018963;29;20020;-75
2023/09/07 00:53:26;;;;;;;6.20;3.60;;;;;;;;;;1018962;29;20031;-75
2023/09/07 00:53:57;;;;;;;5.80;3.53;;;;;;;;;;1022836;28;20050;-75
2023/09/07 00:54:28;;;;;;;4.45;3.30;;;;;;;;;;1019613;28;20099;-74
2023/09/07 00:54:59;;;;;;;4.88;3.95;;;;;;;;;;1018893;29;20602;-75
2023/09/07 00:55:32;;;;;;;6.38;3.47;;;;;;;;;;1023331;28;20114;-74
2023/09/07 00:56:03;;;;;;;5.03;3.63;;;;;;;;;;1022183;28;20668;-72
2023/09/07 00:56:33;;;;;;;4.13;3.15;;;;;;;;;;1026644;28;20034;-75
2023/09/07 00:57:04;;;;;;;4.47;3.40;;;;;;;;;;1022988;28;20019;-73
2023/09/07 00:57:34;;;;;;;4.65;3.63;;;;;;;;;;1022614;29;20027;-74
2023/09/07 00:58:05;;;;;;;4.30;3.28;;;;;;;;;;1014939;29;20064;-75
2023/09/07 00:58:35;;;;;;;5.50;3.70;;;;;;;;;;1014946;29;20020;-75
2023/09/07 00:59:05;;;;;;;3.88;3.35;;;;;;;;;;1015052;29;20495;-75
2023/09/07 00:59:36;;;;;;;4.78;3.33;;;;;;;;;;1017952;29;20501;-75
2023/09/07 01:00:07;;;;;;;7.65;3.70;;;;;;;;;;1018936;29;20482;-75
2023/09/07 01:00:37;;;;;;;5.32;3.63;;;;;;;;;;1022073;28;20057;-75
2023/09/07 01:01:08;;;;;;;4.43;3.72;;;;;;;;;;1022735;28;20434;-75
2023/09/07 01:01:38;;;;;;;7.57;4.00;;;;;;;;;;1022875;28;20019;-75
2023/09/07 01:02:09;;;;;;;5.07;3.70;;;;;;;;;;1022959;28;20019;-74
2023/09/07 01:02:39;;;;;;;4.65;3.50;;;;;;;;;;1022610;28;20058;-74
2023/09/07 01:03:09;;;;;;;7.50;3.88;;;;;;;;;;1026896;28;20026;-73
2023/09/07 01:03:40;;;;;;;5.25;3.40;;;;;;;;;;1030780;28;20035;-74
2023/09/07 01:04:11;;;;;;;5.65;3.60;;;;;;;;;;1034772;28;20096;-75
2023/09/07 01:04:42;;;;;;;4.10;3.53;;;;;;;;;;1030581;28;20386;-75
2023/09/07 01:05:12;;;;;;;5.78;3.20;;;;;;;;;;1033113;28;20105;-75
2023/09/07 01:05:46;;;;;;;4.50;3.40;;;;;;;;;;1038855;28;20014;-75
2023/09/07 01:06:22;;;;;;;9.77;3.83;;;;;;;;;;1035101;28;20020;-75
2023/09/07 01:06:56;;;;;;;5.07;3.58;;;;;;;;;;1034348;28;20021;-75
2023/09/07 01:07:34;;;;;;;5.28;3.95;;;;;;;;;;1034470;28;20017;-75
2023/09/07 01:08:07;;;;;;;5.30;3.50;;;;;;;;;;1029808;28;20010;-75
2023/09/07 01:08:46;;;;;;;5.75;3.10;;;;;;;;;;1024516;28;20015;-75
2023/09/07 01:09:19;;;;;;;4.97;3.63;;;;;;;;;;1030706;28;20015;-74
2023/09/07 01:09:51;;;;;;;5.30;3.50;;;;;;;;;;1026252;28;20035;-74
2023/09/07 01:10:22;;;;;;;4.72;3.40;;;;;;;;;;1025864;28;20114;-74
2023/09/07 01:10:53;;;;;;;6.20;3.65;;;;;;;;;;1023375;28;20012;-75
2023/09/07 01:11:23;;;;;;;5.13;3.80;;;;;;;;;;1023579;28;20376;-75
2023/09/07 01:11:54;;;;;;;4.78;3.67;;;;;;;;;;1026861;28;20442;-74
2023/09/07 01:12:24;;;;;;;8.77;3.60;;;;;;;;;;1030523;28;20027;-75
2023/09/07 01:12:54;;;;;;;6.53;4.00;;;;;;;;;;1027527;28;20490;-74
2023/09/07 01:13:24;;;;;;;6.22;4.00;;;;;;;;;;1022830;28;20015;-75
2023/09/07 01:13:55;;;;;;;6.72;3.53;;;;;;;;;;1022851;29;20015;-75
2023/09/07 01:14:25;;;;;;;6.80;3.67;;;;;;;;;;1022726;29;20023;-75
2023/09/07 01:14:55;;;;;;;5.22;3.63;;;;;;;;;;1022053;29;20125;-74
2023/09/07 01:15:26;;;;;;;3.88;3.28;;;;;;;;;;1026771;28;20118;-74
2023/09/07 01:15:56;;;;;;;5.10;3.40;;;;;;;;;;1026643;28;20109;-75
2023/09/07 01:16:28;;;;;;;5.60;4.18;;;;;;;;;;1030696;28;20441;-75
2023/09/07 01:16:58;;;;;;;8.55;4.13;;;;;;;;;;1026662;28;20557;-75
2023/09/07 01:17:28;;;;;;;9.02;4.22;;;;;;;;;;1026903;28;20023;-75
2023/09/07 01:17:59;;;;;;;12.05;4.07;;;;;;;;;;1030527;28;20031;-75
2023/09/07 01:18:29;;;;;;;7.97;4.28;;;;;;;;;;1034634;28;20021;-75
2023/09/07 01:19:00;;;;;;;6.68;3.60;;;;;;;;;;1030722;28;20097;-75
2023/09/07 01:19:30;;;;;;;14.43;4.07;;;;;;;;;;1030711;28;20033;-75
2023/09/07 01:20:05;;;;;;;7.40;4.10;;;;;;;;;;1026718;28;20398;-74
2023/09/07 01:20:36;;;;;;;7.93;3.85;;;;;;;;;;1026656;28;20472;-75
2023/09/07 01:21:07;;;;;;;14.48;4.13;;;;;;;;;;1026670;28;20015;-75
2023/09/07 01:21:38;;;;;;;5.13;3.75;;;;;;;;;;1026604;28;20075;-75
2023/09/07 01:22:08;;;;;;;6.88;4.20;;;;;;;;;;1026181;28;20019;-75
2023/09/07 01:22:39;;;;;;;6.07;4.43;;;;;;;;;;1027204;28;20644;-75
2023/09/07 01:23:09;;;;;;;6.43;4.30;;;;;;;;;;1030850;28;20018;-75
2023/09/07 01:23:40;;;;;;;8.45;3.90;;;;;;;;;;1030710;28;20057;-74
2023/09/07 01:24:10;;;;;;;4.40;3.83;;;;;;;;;;1030902;28;20010;-75
2023/09/07 01:24:41;;;;;;;5.75;4.25;;;;;;;;;;1030512;28;20879;-75
2023/09/07 01:25:11;;;;;;;4.82;3.50;;;;;;;;;;1022801;28;20030;-75
2023/09/07 01:25:41;;;;;;;4.35;3.33;;;;;;;;;;1026763;28;20070;-75
2023/09/07 01:26:12;;;;;;;5.15;3.92;;;;;;;;;;1030836;28;20019;-75
2023/09/07 01:26:42;;;;;;;4.53;3.90;;;;;;;;;;1022636;28;20019;-76
2023/09/07 01:27:15;;;;;;;7.40;3.90;;;;;;;;;;1022631;28;20103;-74
2023/09/07 01:27:45;;;;;;;5.07;3.88;;;;;;;;;;1018748;29;20023;-75
2023/09/07 01:28:15;;;;;;;4.30;3.67;;;;;;;;;;1022862;29;20110;-74
2023/09/07 01:28:46;;;;;;;4.43;3.70;;;;;;;;;;1016131;29;20072;-75
2023/09/07 01:29:19;;;;;;;5.13;3.97;;;;;;;;;;1018646;29;20069;-75
2023/09/07 01:29:50;;;;;;;5.68;3.95;;;;;;;;;;1014875;29;20135;-74
2023/09/07 01:30:20;;;;;;;7.70;4.03;;;;;;;;;;1018970;28;20039;-74
2023/09/07 01:30:51;;;;;;;6.20;4.03;;;;;;;;;;1023102;28;20519;-75
2023/09/07 01:31:21;;;;;;;5.38;4.07;;;;;;;;;;1026679;28;20026;-75
2023/09/07 01:31:52;;;;;;;19.90;4.63;;;;;;;;;;1026440;28;20444;-75
2023/09/07 01:32:22;;;;;;;7.60;4.47;;;;;;;;;;1026036;28;20015;-75
2023/09/07 01:32:53;;;;;;;10.57;4.60;;;;;;;;;;1030779;28;20030;-75
2023/09/07 01:33:23;;;;;;;8.02;4.15;;;;;;;;;;1030550;28;20026;-75
2023/09/07 01:33:53;;;;;;;7.55;4.03;;;;;;;;;;1032429;28;20025;-75
2023/09/07 01:34:24;;;;;;;9.30;3.88;;;;;;;;;;1034702;28;20088;-74
2023/09/07 01:34:56;;;;;;;6.70;4.03;;;;;;;;;;1030521;28;20169;-75
2023/09/07 01:35:26;;;;;;;4.38;3.80;;;;;;;;;;1022642;28;20020;-74
2023/09/07 01:35:56;;;;;;;8.05;4.43;;;;;;;;;;1026513;28;20023;-74
2023/09/07 01:36:26;;;;;;;5.40;3.97;;;;;;;;;;1026754;28;20110;-75
2023/09/07 01:36:57;;;;;;;7.13;3.67;;;;;;;;;;1022692;28;20550;-75
2023/09/07 01:37:27;;;;;;;7.20;4.03;;;;;;;;;;1022427;28;20166;-75
2023/09/07 01:37:57;;;;;;;6.10;4.32;;;;;;;;;;1030575;28;20474;-75
2023/09/07 01:38:27;;;;;;;5.20;3.85;;;;;;;;;;1030704;28;20014;-75
2023/09/07 01:38:58;;;;;;;4.82;3.67;;;;;;;;;;1028848;28;20115;-75
2023/09/07 01:39:28;;;;;;;6.95;3.85;;;;;;;;;;1030710;28;20015;-74
2023/09/07 01:40:00;;;;;;;5.38;3.97;;;;;;;;;;1030729;28;20478;-75
2023/09/07 01:40:30;;;;;;;6.63;4.05;;;;;;;;;;1030147;28;20598;-74
2023/09/07 01:41:01;;;;;;;10.18;4.82;;;;;;;;;;1034703;28;20028;-75
2023/09/07 01:41:31;;;;;;;5.15;3.78;;;;;;;;;;1035039;28;20017;-74
2023/09/07 01:42:01;;;;;;;5.05;3.40;;;;;;;;;;1026564;28;20015;-75
2023/09/07 01:42:32;;;;;;;4.50;3.60;;;;;;;;;;1022690;28;20094;-75
2023/09/07 01:43:02;;;;;;;5.35;4.45;;;;;;;;;;1018758;29;20023;-75
2023/09/07 01:43:33;;;;;;;4.63;4.10;;;;;;;;;;1014908;29;20104;-75
2023/09/07 01:44:03;;;;;;;4.97;3.75;;;;;;;;;;1027833;28;20057;-74
2023/09/07 01:44:34;;;;;;;7.47;3.80;;;;;;;;;;1022764;28;20024;-75
2023/09/07 01:45:04;;;;;;;4.32;3.63;;;;;;;;;;1018836;29;20042;-75
2023/09/07 01:45:34;;;;;;;5.53;3.80;;;;;;;;;;1018581;29;20058;-74
2023/09/07 01:46:05;;;;;;;4.97;4.03;;;;;;;;;;1018754;29;20090;-75
2023/09/07 01:46:38;;;;;;;6.05;3.78;;;;;;;;;;1018669;29;20020;-75
2023/09/07 01:47:08;;;;;;;7.28;4.05;;;;;;;;;;1027129;28;20135;-75
2023/09/07 01:47:39;;;;;;;6.00;4.45;;;;;;;;;;1025994;28;20531;-74
2023/09/07 01:48:10;;;;;;;8.23;3.92;;;;;;;;;;1022544;29;20023;-74
2023/09/07 01:48:42;;;;;;;6.78;4.50;;;;;;;;;;1018792;29;20030;-74
2023/09/07 01:49:12;;;;;;;8.80;5.43;;;;;;;;;;1024683;28;20012;-74
2023/09/07 01:49:42;;;;;;;9.20;4.38;;;;;;;;;;1030612;28;20057;-74
2023/09/07 01:50:14;;;;;;;10.15;4.05;;;;;;;;;;1026965;28;20353;-74
2023/09/07 01:50:44;;;;;;;8.43;4.28;;;;;;;;;;1030769;28;20573;-74
2023/09/07 01:51:14;;;;;;;7.30;4.30;;;;;;;;;;1026675;28;20015;-74
2023/09/07 01:51:44;;;;;;;11.38;4.25;;;;;;;;;;1026826;28;20022;-74
2023/09/07 01:52:15;;;;;;;13.70;4.68;;;;;;;;;;1026440;28;20034;-75
2023/09/07 01:52:46;;;;;;;5.15;3.92;;;;;;;;;;1022772;28;20486;-75
2023/09/07 01:53:16;;;;;;;5.47;4.10;;;;;;;;;;1026560;28;20011;-75
2023/09/07 01:53:47;;;;;;;6.55;4.30;;;;;;;;;;1022633;28;20027;-75
2023/09/07 01:54:18;;;;;;;5.18;4.07;;;;;;;;;;1030330;28;20023;-75
2023/09/07 01:54:48;;;;;;;5.38;4.28;;;;;;;;;;1026855;28;20070;-75
2023/09/07 01:55:18;;;;;;;6.30;4.38;;;;;;;;;;1026700;28;20550;-74
2023/09/07 01:55:49;;;;;;;4.78;4.30;;;;;;;;;;1021806;28;20173;-75
2023/09/07 01:56:19;;;;;;;5.22;4.13;;;;;;;;;;1026294;28;20019;-74
2023/09/07 01:56:49;;;;;;;5.10;3.97;;;;;;;;;;1022905;29;20027;-75
2023/09/07 01:57:19;;;;;;;6.13;4.43;;;;;;;;;;1026555;28;20026;-75
2023/09/07 01:57:50;;;;;;;5.50;3.83;;;;;;;;;;1030611;28;20513;-75
2023/09/07 01:58:20;;;;;;;5.38;3.80;;;;;;;;;;1030744;28;20031;-74
2023/09/07 01:58:50;;;;;;;4.85;3.83;;;;;;;;;;1022711;29;20024;-75
2023/09/07 01:59:21;;;;;;;7.55;4.38;;;;;;;;;;1022470;28;20019;-74
2023/09/07 01:59:51;;;;;;;6.95;4.45;;;;;;;;;;1026805;28;20030;-75
2023/09/07 02:00:21;;;;;;;13.32;4.45;;;;;;;;;;1029846;28;20120;-74
2023/09/07 02:00:52;;;;;;;5.88;4.32;;;;;;;;;;1026715;28;20519;-75
2023/09/07 02:01:29;;;;;;;9.77;4.53;;;;;;;;;;1022386;28;20007;-75
2023/09/07 02:01:59;;;;;;;11.25;4.45;;;;;;;;;;1022386;28;20102;-75
2023/09/07 02:02:33;;;;;;;12.68;4.88;;;;;;;;;;1019718;29;20823;-75
2023/09/07 02:03:03;;;;;;;8.05;4.43;;;;;;;;;;1023723;28;20026;-75
2023/09/07 02:03:34;;;;;;;7.05;4.05;;;;;;;;;;1027581;28;20027;-74
2023/09/07 02:04:05;;;;;;;6.53;4.28;;;;;;;;;;1031071;28;20493;-75
2023/09/07 02:04:35;;;;;;;5.10;4.03;;;;;;;;;;1027750;28;20034;-74
2023/09/07 02:05:05;;;;;;;5.47;4.32;;;;;;;;;;1023891;28;20106;-73
2023/09/07 02:05:36;;;;;;;5.75;3.97;;;;;;;;;;1022685;28;20040;-73
2023/09/07 02:06:06;;;;;;;4.95;4.07;;;;;;;;;;1025580;28;20019;-73
2023/09/07 02:06:36;;;;;;;8.50;4.28;;;;;;;;;;1022747;28;20046;-73
2023/09/07 02:07:06;;;;;;;7.80;4.93;;;;;;;;;;1022727;28;20026;-74
2023/09/07 02:07:37;;;;;;;8.98;4.63;;;;;;;;;;1022728;29;20023;-73
2023/09/07 02:08:07;;;;;;;6.82;4.10;;;;;;;;;;1022228;29;20041;-73
2023/09/07 02:08:38;;;;;;;18.08;4.55;;;;;;;;;;1022511;29;20046;-75
2023/09/07 02:09:08;;;;;;;7.75;4.72;;;;;;;;;;1026852;28;20034;-74
2023/09/07 02:09:39;;;;;;;6.97;4.35;;;;;;;;;;1032502;28;20627;-73
2023/09/07 02:10:09;;;;;;;7.10;4.55;;;;;;;;;;1034668;28;20018;-74
2023/09/07 02:10:39;;;;;;;6.35;4.20;;;;;;;;;;1037982;28;20016;-73
2023/09/07 02:11:10;;;;;;;6.72;4.35;;;;;;;;;;1033532;28;20608;-74
2023/09/07 02:11:40;;;;;;;4.95;4.00;;;;;;;;;;1022525;28;20031;-74
2023/09/07 02:12:11;;;;;;;6.03;4.60;;;;;;;;;;1018925;29;20019;-73
2023/09/07 02:12:41;;;;;;;6.28;4.50;;;;;;;;;;1018654;29;20020;-74
2023/09/07 02:13:12;;;;;;;6.32;4.20;;;;;;;;;;1023297;28;20026;-74
2023/09/07 02:13:42;;;;;;;6.75;4.85;;;;;;;;;;1022641;28;20077;-74
2023/09/07 02:14:13;;;;;;;9.82;4.53;;;;;;;;;;1026508;28;20025;-73
2023/09/07 02:14:43;;;;;;;7.97;4.97;;;;;;;;;;1026534;28;20031;-74
2023/09/07 02:15:13;;;;;;;4.60;3.80;;;;;;;;;;1026487;28;20027;-74
2023/09/07 02:15:44;;;;;;;6.78;4.30;;;;;;;;;;1022578;28;20042;-74
2023/09/07 02:16:14;;;;;;;7.47;4.35;;;;;;;;;;1027398;28;20026;-74
2023/09/07 02:16:44;;;;;;;6.90;4.75;;;;;;;;;;1030550;28;20076;-74
2023/09/07 02:17:17;;;;;;;5.53;4.15;;;;;;;;;;1030541;28;20059;-74
2023/09/07 02:17:48;;;;;;;6.25;4.28;;;;;;;;;;1022468;28;20063;-74
2023/09/07 02:18:18;;;;;;;6.35;4.40;;;;;;;;;;1021883;28;20023;-74
2023/09/07 02:18:49;;;;;;;9.27;4.57;;;;;;;;;;1026528;28;20055;-74
2023/09/07 02:19:22;;;;;;;5.18;3.92;;;;;;;;;;1022750;28;20019;-74
2023/09/07 02:19:52;;;;;;;4.63;4.05;;;;;;;;;;1027001;28;20027;-74
2023/09/07 02:20:23;;;;;;;5.85;4.18;;;;;;;;;;1027324;28;20610;-74
2023/09/07 02:20:53;;;;;;;6.20;4.10;;;;;;;;;;1026764;28;20066;-73
2023/09/07 02:21:23;;;;;;;5.15;4.05;;;;;;;;;;1022488;28;20019;-74
2023/09/07 02:21:54;;;;;;;6.68;5.00;;;;;;;;;;1026311;28;20034;-74
2023/09/07 02:22:24;;;;;;;5.72;4.30;;;;;;;;;;1030063;28;20567;-74
2023/09/07 02:22:54;;;;;;;6.45;4.05;;;;;;;;;;1026378;28;20401;-74
2023/09/07 02:23:25;;;;;;;5.57;4.30;;;;;;;;;;1026744;28;20023;-74
2023/09/07 02:23:55;;;;;;;5.10;4.13;;;;;;;;;;1026393;28;20553;-74
2023/09/07 02:24:25;;;;;;;5.70;4.55;;;;;;;;;;1023315;29;20023;-74
2023/09/07 02:24:55;;;;;;;7.50;4.35;;;;;;;;;;1027106;28;20525;-74
2023/09/07 02:25:27;;;;;;;4.75;3.90;;;;;;;;;;1026773;28;20039;-73
2023/09/07 02:25:58;;;;;;;6.20;4.18;;;;;;;;;;1026848;28;20527;-73
2023/09/07 02:26:28;;;;;;;6.43;4.53;;;;;;;;;;1022745;28;20029;-74
2023/09/07 02:26:58;;;;;;;5.47;4.03;;;;;;;;;;1022925;29;20023;-74
2023/09/07 02:27:28;;;;;;;7.18;4.00;;;;;;;;;;1022922;29;20106;-74
2023/09/07 02:27:59;;;;;;;6.20;4.10;;;;;;;;;;1022951;29;20414;-74
2023/09/07 02:28:29;;;;;;;6.22;4.80;;;;;;;;;;1015118;29;20020;-74
2023/09/07 02:28:59;;;;;;;5.00;4.18;;;;;;;;;;1021996;29;20031;-73
2023/09/07 02:29:30;;;;;;;8.43;3.95;;;;;;;;;;1026978;28;20018;-74
2023/09/07 02:30:01;;;;;;;4.57;3.80;;;;;;;;;;1022928;29;20561;-74
2023/09/07 02:30:31;;;;;;;4.50;3.95;;;;;;;;;;1030181;28;20026;-74
2023/09/07 02:31:02;;;;;;;8.23;4.38;;;;;;;;;;1031234;28;20497;-74
2023/09/07 02:31:32;;;;;;;5.45;4.00;;;;;;;;;;1022890;28;20483;-74
2023/09/07 02:32:03;;;;;;;7.68;4.28;;;;;;;;;;1027355;28;20018;-74
2023/09/07 02:32:33;;;;;;;9.93;4.47;;;;;;;;;;1031052;28;20033;-74
2023/09/07 02:33:04;;;;;;;4.93;3.92;;;;;;;;;;1022865;29;20023;-74
2023/09/07 02:33:35;;;;;;;8.88;4.63;;;;;;;;;;1026843;28;20062;-75
2023/09/07 02:34:05;;;;;;;4.68;3.95;;;;;;;;;;1026686;28;20038;-74
2023/09/07 02:34:36;;;;;;;4.40;4.00;;;;;;;;;;1018874;29;20026;-74
2023/09/07 02:35:06;;;;;;;5.80;4.38;;;;;;;;;;1019169;29;20011;-74
2023/09/07 02:35:37;;;;;;;4.93;4.30;;;;;;;;;;1026703;28;20023;-74
2023/09/07 02:36:07;;;;;;;7.20;4.53;;;;;;;;;;1031146;28;20126;-74
2023/09/07 02:36:37;;;;;;;5.50;4.18;;;;;;;;;;1035080;28;20022;-74
2023/09/07 02:37:08;;;;;;;9.02;4.60;;;;;;;;;;1030843;28;20110;-74
2023/09/07 02:37:38;;;;;;;6.15;4.00;;;;;;;;;;1026866;28;20027;-74
2023/09/07 02:38:08;;;;;;;5.65;4.35;;;;;;;;;;1031031;28;20570;-74
2023/09/07 02:38:38;;;;;;;6.82;4.10;;;;;;;;;;1034868;28;20022;-74
2023/09/07 02:39:11;;;;;;;5.97;4.15;;;;;;;;;;1036098;28;20013;-74
2023/09/07 02:39:41;;;;;;;5.50;4.50;;;;;;;;;;1034800;28;20033;-74
2023/09/07 02:40:12;;;;;;;6.57;4.28;;;;;;;;;;1034765;28;20018;-74
2023/09/07 02:40:42;;;;;;;5.85;4.03;;;;;;;;;;1030064;28;20026;-74
2023/09/07 02:41:12;;;;;;;5.15;4.22;;;;;;;;;;1027066;28;20026;-73
2023/09/07 02:41:43;;;;;;;5.30;3.97;;;;;;;;;;1022902;28;20024;-73
2023/09/07 02:42:13;;;;;;;5.47;4.35;;;;;;;;;;1022989;28;20042;-73
2023/09/07 02:42:43;;;;;;;7.03;4.70;;;;;;;;;;1023146;29;20664;-74
2023/09/07 02:43:13;;;;;;;5.68;4.70;;;;;;;;;;1023173;29;20026;-73
2023/09/07 02:43:44;;;;;;;8.05;4.65;;;;;;;;;;1026908;28;20089;-74
2023/09/07 02:44:14;;;;;;;11.40;5.50;;;;;;;;;;1030844;28;20053;-74
2023/09/07 02:44:44;;;;;;;13.38;4.70;;;;;;;;;;1026948;28;20348;-74
2023/09/07 02:45:15;;;;;;;9.65;5.07;;;;;;;;;;1026774;28;20034;-74
2023/09/07 02:45:45;;;;;;;9.68;5.40;;;;;;;;;;1025460;28;20026;-74
2023/09/07 02:46:16;;;;;;;6.15;4.32;;;;;;;;;;1023019;28;20490;-73
2023/09/07 02:46:46;;;;;;;7.78;4.93;;;;;;;;;;1022957;28;20038;-74
2023/09/07 02:47:19;;;;;;;6.57;4.70;;;;;;;;;;1023002;28;20023;-73
2023/09/07 02:47:50;;;;;;;7.65;4.70;;;;;;;;;;1023427;28;20034;-74
2023/09/07 02:48:21;;;;;;;7.93;4.72;;;;;;;;;;1023228;28;20034;-74
2023/09/07 02:48:51;;;;;;;6.95;5.05;;;;;;;;;;1019626;29;20471;-74
2023/09/07 02:49:21;;;;;;;4.75;4.18;;;;;;;;;;1022640;28;20130;-74
2023/09/07 02:49:52;;;;;;;7.65;4.85;;;;;;;;;;1023025;28;20148;-75
2023/09/07 02:50:22;;;;;;;7.18;5.10;;;;;;;;;;1022434;28;20518;-74
2023/09/07 02:50:53;;;;;;;8.38;4.47;;;;;;;;;;1024326;28;20093;-74
2023/09/07 02:51:24;;;;;;;5.75;4.70;;;;;;;;;;1023197;29;20019;-74
2023/09/07 02:51:54;;;;;;;8.32;5.13;;;;;;;;;;1023050;28;20516;-74
2023/09/07 02:52:24;;;;;;;7.88;4.85;;;;;;;;;;1019137;28;20599;-74
2023/09/07 02:52:55;;;;;;;5.95;4.68;;;;;;;;;;1023043;29;20024;-74
2023/09/07 02:53:25;;;;;;;5.57;4.18;;;;;;;;;;1023022;29;20522;-74
2023/09/07 02:53:55;;;;;;;6.65;4.93;;;;;;;;;;1022844;28;20023;-75
2023/09/07 02:54:26;;;;;;;8.50;4.72;;;;;;;;;;1035093;28;20013;-74
2023/09/07 02:54:56;;;;;;;7.32;4.70;;;;;;;;;;1038955;28;20025;-74
2023/09/07 02:55:27;;;;;;;8.05;5.13;;;;;;;;;;1031048;28;20018;-74
2023/09/07 02:55:57;;;;;;;7.85;5.18;;;;;;;;;;1028024;28;20106;-74
2023/09/07 02:56:27;;;;;;;7.22;4.38;;;;;;;;;;1030883;28;20105;-74
2023/09/07 02:56:57;;;;;;;7.32;4.80;;;;;;;;;;1027075;28;20059;-74
2023/09/07 02:57:28;;;;;;;9.90;4.55;;;;;;;;;;1030882;28;20010;-74
2023/09/07 02:57:59;;;;;;;7.72;5.07;;;;;;;;;;1022646;28;20043;-74
2023/09/07 02:58:30;;;;;;;8.60;4.90;;;;;;;;;;1019250;29;20027;-74
2023/09/07 02:59:00;;;;;;;8.13;5.13;;;;;;;;;;1022989;28;20668;-74
2023/09/07 02:59:30;;;;;;;8.50;4.63;;;;;;;;;;1025885;28;20122;-74
2023/09/07 03:00:01;;;;;;;9.00;5.50;;;;;;;;;;1030739;28;20027;-74
2023/09/07 03:00:32;;;;;;;7.55;4.82;;;;;;;;;;1030229;28;20023;-74
2023/09/07 03:01:05;;;;;;;9.98;4.95;;;;;;;;;;1026865;28;20080;-74
2023/09/07 03:01:35;;;;;;;7.53;5.60;;;;;;;;;;1031158;28;20106;-74
2023/09/07 03:02:07;;;;;;;5.18;4.57;;;;;;;;;;1034860;28;20303;-74
2023/09/07 03:02:37;;;;;;;7.63;4.82;;;;;;;;;;1035186;28;20022;-74
2023/09/07 03:03:07;;;;;;;7.72;4.90;;;;;;;;;;1030687;28;20433;-74
2023/09/07 03:03:37;;;;;;;6.97;4.70;;;;;;;;;;1031054;28;20117;-74
2023/09/07 03:04:08;;;;;;;9.73;5.45;;;;;;;;;;1022874;29;20077;-74